Time;durP1;ratioP1;P1;durP2;ratioP2;P2;SDS_P1;SDS_P2;PMS_P1;PMS_P2;Temp;Humidity;BMP_temperature;BMP_pressure;BME280_temperature;BME280_humidity;BME280_pressure;Samples;Min_cycle;Max_cycle;Signal;HPM_P1;HPM_P2
2021/07/13 00:00:23;;;;;;;8.90;8.00;;;;;;;26.07;40.38;95035.56;5022333;28;20193;-65
2021/07/13 00:02:51;;;;;;;9.30;8.20;;;;;;;26.09;40.43;95044.03;5028289;28;20779;-66
2021/07/13 00:05:19;;;;;;;10.33;8.53;;;;;;;26.08;40.30;95045.16;5021857;28;20300;-66
2021/07/13 00:07:48;;;;;;;11.87;8.37;;;;;;;25.96;40.96;95045.22;5027924;28;20197;-64
2021/07/13 00:10:20;;;;;;;9.07;7.97;;;;;;;25.92;40.79;95053.22;5017749;28;20197;-65
2021/07/13 00:12:49;;;;;;;13.40;8.30;;;;;;;25.72;41.61;95056.94;5028384;28;20227;-65
2021/07/13 00:15:28;;;;;;;8.60;7.70;;;;;;;25.72;41.62;95048.88;5009798;28;20571;-64
2021/07/13 00:17:56;;;;;;;12.97;8.47;;;;;;;25.68;41.73;95045.34;5011277;28;20205;-68
2021/07/13 00:20:25;;;;;;;11.73;8.40;;;;;;;25.64;42.00;95057.88;5010653;28;20618;-66
2021/07/13 00:22:52;;;;;;;12.73;8.50;;;;;;;25.56;42.50;95050.00;5023922;28;20251;-66
2021/07/13 00:25:19;;;;;;;8.87;7.97;;;;;;;25.59;42.25;95060.03;5029160;28;20213;-66
2021/07/13 00:27:47;;;;;;;11.87;8.33;;;;;;;25.33;42.71;95062.44;5029362;28;20215;-68
2021/07/13 00:30:17;;;;;;;8.83;7.93;;;;;;;25.47;42.50;95060.91;5028757;28;20255;-68
2021/07/13 00:32:44;;;;;;;10.60;8.57;;;;;;;25.48;42.29;95059.00;5029697;28;20201;-68
2021/07/13 00:35:11;;;;;;;9.70;8.70;;;;;;;25.62;42.41;95062.06;5023995;28;20188;-68
2021/07/13 00:37:39;;;;;;;9.63;8.50;;;;;;;25.50;42.24;95062.13;5029424;28;20186;-67
2021/07/13 00:40:07;;;;;;;13.20;9.40;;;;;;;25.51;42.46;95061.00;5029086;28;20201;-68
2021/07/13 00:42:34;;;;;;;10.67;9.33;;;;;;;25.49;42.56;95063.25;5015002;28;20326;-67
2021/07/13 00:45:01;;;;;;;12.93;9.07;;;;;;;25.27;42.80;95071.84;5030546;28;20217;-68
2021/07/13 00:47:28;;;;;;;11.30;8.77;;;;;;;25.22;42.88;95061.38;5033501;28;20208;-65
2021/07/13 00:49:58;;;;;;;13.63;9.40;;;;;;;25.04;43.29;95060.88;5032549;28;20671;-68
2021/07/13 00:52:25;;;;;;;10.00;9.00;;;;;;;25.07;42.85;95063.66;5031339;28;20220;-68
2021/07/13 00:54:52;;;;;;;13.27;8.90;;;;;;;25.08;43.20;95067.91;5012908;28;20197;-68
2021/07/13 00:57:19;;;;;;;13.80;9.40;;;;;;;25.29;42.53;95069.59;5026901;28;20220;-69
2021/07/13 00:59:47;;;;;;;13.87;9.70;;;;;;;25.22;42.51;95061.38;5032405;28;20249;-69
2021/07/13 01:02:16;;;;;;;10.50;9.40;;;;;;;25.13;42.49;95066.09;5021015;28;20269;-67
2021/07/13 01:04:48;;;;;;;11.23;9.70;;;;;;;25.35;42.18;95057.47;5031512;28;20201;-67
2021/07/13 01:07:35;;;;;;;16.13;9.10;;;;;;;25.13;42.56;95052.69;5033257;28;20211;-67
2021/07/13 01:10:08;;;;;;;10.37;9.40;;;;;;;24.83;42.68;95057.63;5019592;28;20224;-66
2021/07/13 01:12:46;;;;;;;12.97;10.20;;;;;;;24.79;42.70;95054.84;5034471;28;20297;-70
2021/07/13 01:15:18;;;;;;;10.80;9.13;;;;;;;24.96;42.88;95040.38;5021560;28;20193;-66
2021/07/13 01:17:55;;;;;;;10.77;9.57;;;;;;;25.05;42.13;95039.06;5034905;28;20201;-67
2021/07/13 01:20:51;;;;;;;10.77;9.53;;;;;;;25.11;42.22;95042.28;5027180;28;20201;-66
2021/07/13 01:23:23;;;;;;;10.70;9.60;;;;;;;25.13;42.23;95047.34;5025245;28;20193;-66
2021/07/13 01:25:56;;;;;;;16.77;10.20;;;;;;;25.09;42.31;95050.69;5027188;28;20233;-67
2021/07/13 01:28:25;;;;;;;13.43;9.83;;;;;;;25.09;42.58;95056.03;5022725;28;20205;-66
2021/07/13 01:30:59;;;;;;;13.87;9.53;;;;;;;25.06;42.59;95061.31;5027845;28;20679;-66
2021/07/13 01:33:28;;;;;;;13.87;9.57;;;;;;;25.05;42.65;95059.78;5030344;28;20203;-67
2021/07/13 01:36:06;;;;;;;11.10;10.00;;;;;;;24.67;42.69;95060.19;5031613;28;20197;-66
2021/07/13 01:38:39;;;;;;;12.33;10.23;;;;;;;24.58;43.30;95067.59;5032938;28;20204;-68
2021/07/13 01:41:09;;;;;;;12.00;10.17;;;;;;;24.55;43.67;95073.66;5031761;28;20235;-67
2021/07/13 01:43:42;;;;;;;11.20;10.00;;;;;;;24.53;43.60;95070.53;5033128;28;20197;-67
2021/07/13 01:46:12;;;;;;;11.57;9.97;;;;;;;24.63;43.55;95075.41;5016162;28;20232;-68
2021/07/13 01:48:41;;;;;;;11.20;9.43;;;;;;;24.58;43.61;95072.97;5032514;28;20284;-68
2021/07/13 01:51:09;;;;;;;12.13;9.17;;;;;;;24.41;44.16;95077.81;5024877;28;20204;-66
2021/07/13 01:53:38;;;;;;;10.30;9.30;;;;;;;24.52;43.78;95076.22;5023360;28;20204;-66
2021/07/13 01:56:07;;;;;;;11.37;9.70;;;;;;;24.61;43.38;95076.88;5016429;28;20198;-69
2021/07/13 01:58:34;;;;;;;11.03;9.37;;;;;;;24.43;44.58;95072.88;5031921;28;20208;-65
2021/07/13 02:01:10;;;;;;;12.07;9.30;;;;;;;24.41;44.70;95070.56;5028619;28;20197;-67
2021/07/13 02:03:39;;;;;;;11.20;10.17;;;;;;;24.45;44.44;95063.38;5020543;28;20274;-66
2021/07/13 02:06:06;;;;;;;13.97;10.17;;;;;;;24.43;44.47;95062.19;5031282;28;20327;-66
2021/07/13 02:08:38;;;;;;;14.30;10.33;;;;;;;24.38;45.09;95068.53;5031639;28;20197;-66
2021/07/13 02:11:07;;;;;;;14.07;10.47;;;;;;;24.35;45.49;95071.91;5030800;28;20205;-68
2021/07/13 02:13:34;;;;;;;14.13;11.80;;;;;;;24.34;45.29;95067.66;5030385;28;20209;-65
2021/07/13 02:16:02;;;;;;;16.47;11.07;;;;;;;24.22;45.71;95073.03;5031282;28;20201;-69
2021/07/13 02:18:29;;;;;;;20.10;11.87;;;;;;;24.36;45.31;95075.38;5032051;28;20197;-65
2021/07/13 02:20:56;;;;;;;12.03;10.73;;;;;;;24.16;46.08;95066.31;5018755;28;20198;-70
2021/07/13 02:23:23;;;;;;;14.80;10.63;;;;;;;24.22;46.27;95073.03;5030370;28;20585;-67
2021/07/13 02:25:54;;;;;;;15.77;11.10;;;;;;;24.25;45.95;95069.66;5031295;28;20284;-68
2021/07/13 02:28:30;;;;;;;12.07;10.87;;;;;;;24.23;45.99;95060.44;5031360;28;20205;-66
2021/07/13 02:31:02;;;;;;;13.07;10.80;;;;;;;23.98;46.86;95070.31;5030753;28;20567;-67
2021/07/13 02:33:42;;;;;;;17.23;11.53;;;;;;;24.04;46.55;95069.81;5031440;28;20197;-68
2021/07/13 02:36:14;;;;;;;12.03;10.70;;;;;;;24.00;47.13;95073.44;5018423;28;20204;-68
2021/07/13 02:38:45;;;;;;;11.57;10.37;;;;;;;23.96;46.66;95069.88;5031282;28;20668;-66
2021/07/13 02:41:14;;;;;;;14.17;10.90;;;;;;;23.97;47.01;95074.13;5024361;28;20232;-68
2021/07/13 02:43:42;;;;;;;15.03;11.07;;;;;;;23.88;47.29;95076.13;5025739;28;20213;-68
2021/07/13 02:46:11;;;;;;;15.90;11.60;;;;;;;23.97;47.27;95071.47;5034038;28;20312;-67
2021/07/13 02:48:39;;;;;;;14.40;11.40;;;;;;;23.89;47.24;95072.34;5031635;28;20276;-68
2021/07/13 02:51:09;;;;;;;15.90;10.83;;;;;;;23.88;47.35;95068.13;5030728;28;20204;-67
2021/07/13 02:53:38;;;;;;;13.60;10.90;;;;;;;23.81;47.66;95065.97;5031433;28;20197;-70
2021/07/13 02:56:08;;;;;;;17.97;11.37;;;;;;;23.69;47.46;95073.22;5029409;28;20209;-68
2021/07/13 02:58:36;;;;;;;14.37;12.70;;;;;;;23.86;47.21;95067.66;5024838;28;20217;-66
2021/07/13 03:01:06;;;;;;;22.80;12.23;;;;;;;23.91;47.44;95064.75;5033973;28;20197;-67
2021/07/13 03:03:40;;;;;;;15.40;12.30;;;;;;;23.73;47.67;95063.41;5021650;28;20966;-68
2021/07/13 03:06:08;;;;;;;17.90;12.50;;;;;;;23.74;47.91;95070.34;5024115;28;20228;-66
2021/07/13 03:08:35;;;;;;;20.20;11.57;;;;;;;23.62;47.66;95073.00;5010318;28;20222;-66
2021/07/13 03:11:03;;;;;;;17.47;11.73;;;;;;;23.54;48.42;95081.91;5025187;28;20200;-67
2021/07/13 03:13:33;;;;;;;14.57;12.07;;;;;;;23.52;48.32;95073.44;5030827;28;20205;-69
2021/07/13 03:16:01;;;;;;;15.17;11.97;;;;;;;23.58;48.38;95075.56;5030259;28;20228;-67
2021/07/13 03:18:30;;;;;;;15.93;12.77;;;;;;;23.65;47.84;95083.03;5011168;28;20193;-67
2021/07/13 03:21:01;;;;;;;15.47;12.70;;;;;;;23.65;48.31;95083.81;5010235;28;20210;-66
2021/07/13 03:23:29;;;;;;;21.50;13.30;;;;;;;23.49;48.31;95079.44;5010822;28;20205;-66
2021/07/13 03:25:58;;;;;;;16.77;12.97;;;;;;;23.69;47.85;95075.88;5021891;28;20213;-67
2021/07/13 03:28:27;;;;;;;16.67;12.43;;;;;;;23.67;47.83;95076.22;5030436;28;20212;-66
2021/07/13 03:30:55;;;;;;;14.37;12.07;;;;;;;23.69;47.97;95073.22;5029852;28;20219;-67
2021/07/13 03:33:22;;;;;;;15.50;12.13;;;;;;;23.38;47.71;95038.97;5030258;28;20749;-70
2021/07/13 03:35:49;;;;;;;17.07;12.00;;;;;;;23.61;48.26;95087.50;5029651;28;20699;-67
2021/07/13 03:38:18;;;;;;;23.63;13.33;;;;;;;23.59;47.86;95077.13;5029943;28;20201;-67
2021/07/13 03:40:46;;;;;;;13.27;11.93;;;;;;;23.58;48.10;95080.09;5029121;28;20320;-68
2021/07/13 03:43:14;;;;;;;18.07;12.67;;;;;;;23.64;48.28;95073.44;5030017;28;20239;-67
2021/07/13 03:45:41;;;;;;;17.43;12.43;;;;;;;23.67;48.29;95075.44;5015474;28;20210;-67
2021/07/13 03:48:11;;;;;;;14.27;12.80;;;;;;;23.68;48.12;95077.03;5025128;28;20205;-69
2021/07/13 03:50:38;;;;;;;15.33;12.83;;;;;;;23.73;48.46;95079.47;5024582;28;20232;-66
2021/07/13 03:53:05;;;;;;;22.60;13.83;;;;;;;23.78;48.18;95076.56;5036357;28;20313;-66
2021/07/13 03:55:32;;;;;;;15.00;12.30;;;;;;;23.74;48.26;95075.69;5036410;28;20225;-65
2021/07/13 03:57:59;;;;;;;14.47;12.57;;;;;;;23.76;48.14;95081.47;5036349;28;20292;-67
2021/07/13 04:00:27;;;;;;;18.43;12.00;;;;;;;23.81;47.96;95081.28;5034864;28;20299;-66
2021/07/13 04:02:55;;;;;;;24.43;12.30;;;;;;;23.76;48.24;95084.16;5032951;28;20707;-64
2021/07/13 04:05:23;;;;;;;20.23;12.37;;;;;;;23.86;47.64;95083.72;5031534;28;20227;-64
2021/07/13 04:07:50;;;;;;;18.17;12.53;;;;;;;23.79;48.26;95086.19;5027919;28;20223;-67
2021/07/13 04:10:17;;;;;;;14.40;12.37;;;;;;;23.89;47.47;95080.38;5030562;28;20268;-65
2021/07/13 04:12:44;;;;;;;15.80;12.70;;;;;;;23.72;48.15;95072.56;5022267;28;20629;-67
2021/07/13 04:15:13;;;;;;;15.10;11.23;;;;;;;23.67;48.30;95080.78;5022636;28;20276;-65
2021/07/13 04:17:40;;;;;;;16.83;11.83;;;;;;;23.80;48.08;95074.34;5030221;28;20217;-66
2021/07/13 04:20:09;;;;;;;17.70;11.97;;;;;;;23.95;48.27;95085.19;5029291;28;20639;-67
2021/07/13 04:22:36;;;;;;;22.23;12.67;;;;;;;24.01;47.78;95085.78;5027790;28;20224;-66
2021/07/13 04:25:05;;;;;;;17.33;12.30;;;;;;;23.98;48.02;95075.69;5028049;28;20651;-66
2021/07/13 04:27:32;;;;;;;20.33;12.47;;;;;;;24.12;47.95;95076.16;5029875;28;20236;-64
2021/07/13 04:29:59;;;;;;;18.00;12.63;;;;;;;24.10;47.49;95071.13;5026723;28;20236;-66
2021/07/13 04:32:31;;;;;;;16.60;12.80;;;;;;;24.22;46.96;95070.34;5029379;28;20231;-65
2021/07/13 04:34:58;;;;;;;18.93;11.90;;;;;;;24.32;47.12;95074.47;5028951;28;20268;-70
2021/07/13 04:37:25;;;;;;;18.07;11.83;;;;;;;24.42;47.11;95074.78;5028303;28;20209;-70
2021/07/13 04:39:52;;;;;;;21.63;12.67;;;;;;;24.37;46.57;95058.16;5029387;28;20234;-67
2021/07/13 04:42:19;;;;;;;19.73;12.37;;;;;;;24.41;47.18;95067.09;5027445;28;20237;-71
2021/07/13 04:44:46;;;;;;;26.03;21.33;;;;;;;24.41;47.13;95051.81;5029781;28;20204;-70
2021/07/13 04:47:13;;;;;;;30.57;22.47;;;;;;;24.43;47.64;95049.56;5029254;28;20313;-71
2021/07/13 04:49:40;;;;;;;159.60;142.40;;;;;;;24.63;47.34;95053.97;5029952;28;20196;-69
2021/07/13 04:52:07;;;;;;;30.17;14.13;;;;;;;24.81;46.65;95055.28;5028935;28;20216;-72
2021/07/13 04:54:34;;;;;;;19.07;14.17;;;;;;;24.78;46.37;95060.56;5010201;28;20202;-71
2021/07/13 04:57:01;;;;;;;18.77;14.20;;;;;;;24.56;46.68;95059.13;5014492;28;20198;-69
2021/07/13 04:59:29;;;;;;;98.17;81.30;;;;;;;24.90;47.14;95063.97;5023778;28;20534;-70
2021/07/13 05:01:56;;;;;;;40.00;34.00;;;;;;;24.66;46.94;95064.00;5019493;28;20199;-70
2021/07/13 05:04:25;;;;;;;21.40;14.43;;;;;;;24.59;47.30;95057.66;5015360;28;20686;-71
2021/07/13 05:06:52;;;;;;;17.73;14.70;;;;;;;24.64;46.99;95066.25;5028943;28;20271;-71
2021/07/13 05:09:20;;;;;;;21.03;14.03;;;;;;;24.47;48.42;95058.47;5029016;28;21014;-70
2021/07/13 05:11:47;;;;;;;24.73;13.93;;;;;;;24.63;47.34;95063.91;5029376;28;20193;-73
2021/07/13 05:14:15;;;;;;;18.03;13.17;;;;;;;24.57;47.85;95063.38;5029463;28;20193;-73
2021/07/13 05:16:42;;;;;;;20.23;13.93;;;;;;;24.68;47.36;95067.13;5032497;28;20196;-73
2021/07/13 05:19:10;;;;;;;17.17;15.03;;;;;;;24.80;47.89;95069.00;5032032;28;20197;-72
2021/07/13 05:21:40;;;;;;;19.50;13.40;;;;;;;24.68;47.65;95064.47;5031201;28;20216;-73
2021/07/13 05:24:08;;;;;;;16.57;13.00;;;;;;;25.00;46.83;95057.31;5029107;28;20219;-72
2021/07/13 05:26:35;;;;;;;16.37;13.20;;;;;;;24.98;46.68;95060.34;5028886;28;20209;-71
2021/07/13 05:29:04;;;;;;;16.67;13.37;;;;;;;24.89;46.97;95062.38;5030261;28;20212;-70
2021/07/13 05:31:32;;;;;;;19.10;13.73;;;;;;;25.06;46.74;95050.59;5033773;28;20204;-72
2021/07/13 05:33:59;;;;;;;17.67;13.20;;;;;;;25.12;46.46;95056.50;5031583;28;20189;-74
2021/07/13 05:36:27;;;;;;;17.60;13.60;;;;;;;25.20;46.33;95055.56;5032277;28;20209;-72
2021/07/13 05:38:54;;;;;;;19.00;12.33;;;;;;;25.26;46.37;95059.53;5031453;28;20193;-71
2021/07/13 05:41:22;;;;;;;15.30;13.23;;;;;;;25.12;46.32;95048.44;5032208;28;20239;-72
2021/07/13 05:43:50;;;;;;;17.50;13.30;;;;;;;24.99;48.51;95055.78;5032846;28;20200;-73
2021/07/13 05:46:17;;;;;;;18.70;12.87;;;;;;;25.14;47.98;95046.19;5032023;28;20231;-72
2021/07/13 05:48:45;;;;;;;15.37;13.23;;;;;;;24.95;49.31;95066.41;5032583;28;20197;-70
2021/07/13 05:51:13;;;;;;;17.17;12.90;;;;;;;25.16;48.15;95060.06;5026172;28;20204;-72
2021/07/13 05:53:40;;;;;;;15.70;13.60;;;;;;;25.34;47.65;95055.94;5024719;28;20606;-75
2021/07/13 05:56:08;;;;;;;16.13;13.60;;;;;;;25.20;47.35;95061.69;5027549;28;20202;-70
2021/07/13 05:58:35;;;;;;;16.80;13.33;;;;;;;25.40;46.68;95054.59;5012644;28;20201;-72
2021/07/13 06:01:03;;;;;;;18.77;13.37;;;;;;;25.51;46.99;95066.38;5025622;28;20194;-71
2021/07/13 06:03:31;;;;;;;15.17;12.73;;;;;;;25.41;46.45;95053.44;5012083;28;20205;-71
2021/07/13 06:05:59;;;;;;;17.50;12.40;;;;;;;25.78;46.06;95065.50;5027988;28;20201;-72
2021/07/13 06:08:26;;;;;;;22.90;13.37;;;;;;;25.73;45.81;95052.38;5032175;28;20200;-70
2021/07/13 06:10:53;;;;;;;18.53;12.67;;;;;;;25.66;46.15;95062.91;5032181;28;20254;-71
2021/07/13 06:13:21;;;;;;;14.60;12.40;;;;;;;25.68;46.04;95057.97;5013559;28;20233;-71
2021/07/13 06:15:48;;;;;;;18.83;13.97;;;;;;;25.29;46.15;95056.19;5012450;28;20280;-73
2021/07/13 06:18:17;;;;;;;16.43;13.47;;;;;;;25.67;45.15;95032.28;5030596;28;20205;-71
2021/07/13 06:20:44;;;;;;;16.40;12.73;;;;;;;25.92;45.90;95049.75;5020784;28;20660;-75
2021/07/13 06:23:12;;;;;;;25.07;13.00;;;;;;;25.99;45.42;95055.28;5026157;28;20202;-70
2021/07/13 06:25:39;;;;;;;14.47;12.43;;;;;;;26.20;44.35;95058.50;5011920;28;20212;-73
2021/07/13 06:28:06;;;;;;;17.00;12.43;;;;;;;26.01;45.15;95053.03;5027560;28;20263;-72
2021/07/13 06:30:34;;;;;;;21.93;12.97;;;;;;;26.00;45.89;95051.47;5033955;28;20515;-71
2021/07/13 06:33:01;;;;;;;19.20;12.87;;;;;;;25.61;44.53;95055.91;5038764;28;20197;-72
2021/07/13 06:35:28;;;;;;;16.80;12.77;;;;;;;25.91;44.99;95058.94;5037895;28;20193;-73
2021/07/13 06:37:57;;;;;;;17.20;12.13;;;;;;;26.18;44.01;95058.06;5036402;28;20260;-72
2021/07/13 06:40:24;;;;;;;17.60;11.97;;;;;;;26.16;43.96;95038.81;5038744;28;20215;-72
2021/07/13 06:42:51;;;;;;;15.23;12.63;;;;;;;25.73;43.91;94977.19;5022636;28;20244;-71
2021/07/13 06:45:18;;;;;;;17.50;11.40;;;;;;;26.14;44.30;95056.41;5035703;28;20223;-71
2021/07/13 06:47:45;;;;;;;17.03;11.93;;;;;;;25.96;44.16;95034.50;5031121;28;20231;-72
2021/07/13 06:50:12;;;;;;;13.87;11.43;;;;;;;26.25;43.99;95052.84;5031072;28;20201;-72
2021/07/13 06:52:39;;;;;;;17.00;10.83;;;;;;;25.99;43.85;95049.91;5017263;28;20211;-72
2021/07/13 06:55:07;;;;;;;13.03;10.77;;;;;;;26.62;43.53;95056.69;5031159;28;20215;-72
2021/07/13 06:57:35;;;;;;;14.70;10.80;;;;;;;26.67;43.71;95053.75;5031149;28;20197;-73
2021/07/13 07:00:07;;;;;;;14.47;10.40;;;;;;;26.68;43.24;95044.56;5030743;28;20198;-72
2021/07/13 07:02:35;;;;;;;15.70;10.97;;;;;;;26.28;42.12;95051.34;5029313;28;20189;-72
2021/07/13 07:05:01;;;;;;;18.07;11.03;;;;;;;25.98;42.61;95032.25;5018291;28;20203;-70
2021/07/13 07:07:28;;;;;;;14.07;11.23;;;;;;;26.73;41.99;95044.28;5018074;28;20214;-72
2021/07/13 07:09:55;;;;;;;21.00;11.73;;;;;;;26.87;43.53;95047.28;5010686;28;20212;-71
2021/07/13 07:12:22;;;;;;;14.40;10.80;;;;;;;27.11;42.07;95045.41;5022607;28;20204;-71
2021/07/13 07:14:49;;;;;;;23.60;10.67;;;;;;;27.04;42.33;95036.06;5029798;28;20203;-69
2021/07/13 07:17:16;;;;;;;21.00;14.97;;;;;;;27.27;41.80;95032.63;5020346;28;20205;-70
2021/07/13 07:19:43;;;;;;;20.27;11.83;;;;;;;27.47;42.93;95031.50;5024245;28;20209;-71
2021/07/13 07:22:10;;;;;;;21.03;13.97;;;;;;;27.60;42.11;95030.19;5019677;28;20197;-71
2021/07/13 07:24:36;;;;;;;15.43;10.47;;;;;;;27.11;40.60;95019.31;5030344;28;20230;-71
2021/07/13 07:27:03;;;;;;;15.03;10.60;;;;;;;27.53;41.16;95024.69;5023904;28;20218;-75
2021/07/13 07:29:30;;;;;;;22.37;15.53;;;;;;;27.82;41.35;95019.41;5023527;28;20193;-73
2021/07/13 07:31:57;;;;;;;17.60;10.87;;;;;;;27.81;39.94;95025.13;5030192;28;20196;-73
2021/07/13 07:34:25;;;;;;;18.20;10.53;;;;;;;27.63;39.67;95024.84;5025127;28;20196;-71
2021/07/13 07:36:52;;;;;;;23.10;14.60;;;;;;;27.94;40.14;95019.22;5030264;28;20686;-71
2021/07/13 07:39:19;;;;;;;14.93;10.97;;;;;;;27.91;41.11;95019.94;5029806;28;20207;-73
2021/07/13 07:41:46;;;;;;;15.87;11.13;;;;;;;28.09;39.89;95009.44;5030020;28;20220;-71
2021/07/13 07:44:15;;;;;;;16.40;10.77;;;;;;;28.11;41.15;95017.94;5029796;28;20292;-71
2021/07/13 07:46:42;;;;;;;13.73;10.60;;;;;;;28.35;40.27;95017.50;5029984;28;20698;-72
2021/07/13 07:49:09;;;;;;;14.90;10.70;;;;;;;27.70;39.75;95008.81;5030474;28;20259;-73
2021/07/13 07:51:37;;;;;;;18.23;11.50;;;;;;;27.85;40.71;95010.59;5029880;28;20225;-71
2021/07/13 07:54:05;;;;;;;18.23;10.63;;;;;;;28.07;39.80;95006.31;5029809;28;20275;-70
2021/07/13 07:56:34;;;;;;;14.80;10.90;;;;;;;28.32;39.85;95004.00;5029666;28;20276;-70
2021/07/13 07:59:04;;;;;;;18.50;10.67;;;;;;;28.48;39.58;95010.75;5029703;28;20207;-72
2021/07/13 08:01:31;;;;;;;13.83;11.50;;;;;;;28.43;39.27;95008.38;5023587;28;20207;-72
2021/07/13 08:03:58;;;;;;;15.03;9.87;;;;;;;28.64;37.05;95002.50;5023742;28;20345;-71
2021/07/13 08:06:24;;;;;;;10.20;9.10;;;;;;;28.72;37.11;95004.91;5029693;28;20212;-71
2021/07/13 08:08:51;;;;;;;11.63;10.23;;;;;;;28.72;37.22;95004.91;5031861;28;20292;-70
2021/07/13 08:11:18;;;;;;;16.23;8.93;;;;;;;28.92;37.37;94997.44;5032082;28;20193;-72
2021/07/13 08:13:45;;;;;;;17.20;9.87;;;;;;;28.80;36.79;95005.78;5030376;28;20216;-73
2021/07/13 08:16:12;;;;;;;14.80;9.57;;;;;;;28.95;37.06;95002.09;5029005;28;20199;-72
2021/07/13 08:18:39;;;;;;;11.27;9.60;;;;;;;28.88;37.11;95008.19;5030775;28;20197;-73
2021/07/13 08:21:06;;;;;;;14.97;10.40;;;;;;;29.14;36.87;94995.78;5016881;28;20229;-72
2021/07/13 08:23:33;;;;;;;12.50;10.17;;;;;;;28.95;36.35;95002.09;5018448;28;20548;-71
2021/07/13 08:26:00;;;;;;;15.27;10.03;;;;;;;29.30;35.98;94999.03;5020122;28;20189;-73
2021/07/13 08:28:27;;;;;;;13.13;10.23;;;;;;;29.15;35.61;95005.41;5015192;28;20220;-73
2021/07/13 08:30:54;;;;;;;12.33;9.40;;;;;;;29.34;35.30;94991.75;5027838;28;20205;-71
2021/07/13 08:33:21;;;;;;;17.77;10.47;;;;;;;29.55;37.44;95003.50;5029444;28;20671;-71
2021/07/13 08:35:47;;;;;;;13.47;9.87;;;;;;;29.68;35.38;94996.66;5029033;28;20203;-71
2021/07/13 08:38:14;;;;;;;12.73;10.40;;;;;;;29.77;33.81;94989.06;5029747;28;20189;-71
2021/07/13 08:40:41;;;;;;;13.37;10.50;;;;;;;29.58;33.55;94983.09;5028525;28;20231;-72
2021/07/13 08:43:08;;;;;;;15.60;10.20;;;;;;;29.82;36.14;94985.22;5029479;28;20255;-71
2021/07/13 08:45:35;;;;;;;16.57;11.17;;;;;;;30.07;35.45;94983.47;5029166;28;20223;-71
2021/07/13 08:48:03;;;;;;;19.10;10.90;;;;;;;30.15;35.37;94987.75;5029875;28;20221;-70
2021/07/13 08:50:31;;;;;;;12.93;9.97;;;;;;;30.09;35.51;94978.44;5028913;28;20564;-70
2021/07/13 08:53:00;;;;;;;16.33;10.80;;;;;;;30.24;34.56;94977.38;5016605;28;20204;-71
2021/07/13 08:55:27;;;;;;;12.13;9.97;;;;;;;30.29;33.88;94977.03;5016567;28;20197;-71
2021/07/13 08:57:54;;;;;;;18.13;10.23;;;;;;;30.24;33.06;94973.91;5023354;28;20189;-73
2021/07/13 09:00:22;;;;;;;12.30;10.43;;;;;;;30.39;33.07;94970.94;5019903;28;20741;-72
2021/07/13 09:03:06;;;;;;;11.23;9.77;;;;;;;30.71;33.88;94976.50;5026142;28;20217;-72
2021/07/13 09:05:52;;;;;;;17.40;10.53;;;;;;;30.80;33.48;94974.94;5023235;28;20200;-71
2021/07/13 09:08:23;;;;;;;15.73;10.20;;;;;;;31.04;33.75;94983.56;5014186;28;20714;-74
2021/07/13 09:11:11;;;;;;;14.63;10.37;;;;;;;31.13;32.99;94973.91;5014044;28;20737;-75
2021/07/13 09:13:49;;;;;;;12.17;10.33;;;;;;;31.10;32.10;94987.44;5022573;28;20236;-70
2021/07/13 09:16:29;;;;;;;12.37;10.20;;;;;;;31.08;32.41;94984.34;5033933;28;20200;-70
2021/07/13 09:18:58;;;;;;;13.50;9.73;;;;;;;31.30;31.74;94981.31;5024279;28;20203;-73
2021/07/13 09:21:32;;;;;;;13.10;11.63;;;;;;;31.12;32.34;94985.91;5029890;28;20193;-71
2021/07/13 09:24:21;;;;;;;11.10;9.53;;;;;;;31.35;31.78;94988.28;5034547;28;20307;-71
2021/07/13 09:27:00;;;;;;;14.33;9.30;;;;;;;31.33;31.28;94982.47;5019685;28;20284;-73
2021/07/13 09:29:37;;;;;;;11.10;9.63;;;;;;;31.50;31.92;94984.44;5020072;28;20193;-71
2021/07/13 09:32:24;;;;;;;12.63;10.00;;;;;;;31.67;31.38;94989.09;5019221;28;20192;-72
2021/07/13 09:35:04;;;;;;;12.17;9.23;;;;;;;31.65;30.48;94977.88;5034318;28;20250;-70
2021/07/13 09:37:35;;;;;;;12.77;9.30;;;;;;;31.56;31.23;94978.28;5038280;28;20197;-73
2021/07/13 09:40:12;;;;;;;10.97;9.90;;;;;;;31.27;30.32;94981.28;5037622;28;20208;-72
2021/07/13 09:42:51;;;;;;;11.70;10.03;;;;;;;31.31;30.61;94982.88;5037137;28;20237;-72
2021/07/13 09:45:28;;;;;;;10.80;9.57;;;;;;;31.65;31.63;94969.75;5035030;28;20201;-70
2021/07/13 09:48:01;;;;;;;11.63;9.20;;;;;;;31.59;29.60;94968.56;5032313;28;20283;-71
2021/07/13 09:50:51;;;;;;;11.47;9.07;;;;;;;31.29;29.88;94973.56;5032180;28;20675;-73
2021/07/13 09:53:22;;;;;;;12.63;8.60;;;;;;;31.79;31.27;94980.56;5011382;28;20288;-73
2021/07/13 09:55:55;;;;;;;9.73;8.83;;;;;;;31.91;29.86;94963.97;5027523;28;20918;-73
2021/07/13 09:58:24;;;;;;;10.83;8.80;;;;;;;32.10;30.05;94973.63;5032848;28;20205;-72
2021/07/13 10:00:58;;;;;;;11.73;9.23;;;;;;;32.35;30.10;94964.25;5031334;28;20248;-71
2021/07/13 10:03:27;;;;;;;12.17;8.43;;;;;;;32.31;29.23;94963.50;5032433;28;20192;-70
2021/07/13 10:05:57;;;;;;;10.07;8.80;;;;;;;32.55;28.87;94957.25;5031419;28;20211;-73
2021/07/13 10:08:25;;;;;;;13.33;9.00;;;;;;;32.53;28.64;94956.88;5032131;28;20231;-76
2021/07/13 10:10:53;;;;;;;9.13;8.33;;;;;;;32.65;29.25;94945.56;5031233;28;20197;-72
2021/07/13 10:13:20;;;;;;;12.20;8.90;;;;;;;32.60;28.56;94945.97;5017743;28;20201;-72
2021/07/13 10:15:50;;;;;;;10.03;9.03;;;;;;;32.63;28.69;94942.47;5031578;28;20224;-72
2021/07/13 10:18:21;;;;;;;10.43;8.43;;;;;;;32.88;27.20;94938.88;5025738;28;20229;-72
2021/07/13 10:20:50;;;;;;;12.80;9.77;;;;;;;32.99;28.97;94947.75;5022824;28;20274;-72
2021/07/13 10:23:18;;;;;;;12.90;8.57;;;;;;;33.05;29.11;94940.75;5031465;28;20186;-73
2021/07/13 10:25:46;;;;;;;16.03;8.37;;;;;;;33.27;27.83;94936.69;5031723;28;20205;-72
2021/07/13 10:28:19;;;;;;;16.50;8.93;;;;;;;33.56;27.72;94944.28;5031650;28;20227;-70
2021/07/13 10:30:47;;;;;;;9.97;8.40;;;;;;;33.57;26.57;94939.63;5021486;28;20281;-72
2021/07/13 10:33:37;;;;;;;12.90;9.10;;;;;;;33.33;26.50;94935.13;5027336;28;20197;-73
2021/07/13 10:36:34;;;;;;;11.97;9.17;;;;;;;33.38;27.33;94940.13;5017706;28;20266;-72
2021/07/13 10:39:28;;;;;;;10.40;7.80;;;;;;;33.55;26.69;94928.38;5031284;28;20197;-71
2021/07/13 10:41:57;;;;;;;12.20;8.00;;;;;;;33.37;25.32;94920.34;5031226;28;20233;-72
2021/07/13 10:44:47;;;;;;;12.80;8.67;;;;;;;33.28;25.25;94916.53;5031052;28;20651;-74
2021/07/13 10:47:30;;;;;;;8.70;7.90;;;;;;;33.55;25.20;94914.78;5031525;28;20691;-72
2021/07/13 10:50:16;;;;;;;11.43;8.30;;;;;;;33.89;25.97;94917.59;5032033;28;20237;-71
2021/07/13 10:53:00;;;;;;;9.57;8.53;;;;;;;33.95;26.19;94910.53;5031232;28;20193;-71
2021/07/13 10:55:29;;;;;;;12.57;8.53;;;;;;;34.05;25.73;94915.88;5031486;28;20197;-73
2021/07/13 10:58:12;;;;;;;11.30;8.37;;;;;;;34.28;25.18;94918.75;5027181;28;20194;-72
2021/07/13 11:00:51;;;;;;;10.50;7.77;;;;;;;34.35;24.88;94907.00;5030073;28;20205;-73
2021/07/13 11:03:37;;;;;;;14.43;8.70;;;;;;;34.24;25.14;94909.88;5036769;28;20196;-71
2021/07/13 11:06:14;;;;;;;9.13;8.13;;;;;;;34.12;23.67;94910.41;5032422;28;20208;-74
2021/07/13 11:08:41;;;;;;;8.80;7.60;;;;;;;34.26;24.20;94914.91;5023081;28;20236;-71
2021/07/13 11:11:27;;;;;;;12.00;8.43;;;;;;;33.93;24.09;94902.78;5031380;28;20193;-73
2021/07/13 11:14:03;;;;;;;8.97;8.10;;;;;;;33.56;24.69;94905.47;5020607;28;20212;-76
2021/07/13 11:16:31;;;;;;;14.07;8.30;;;;;;;33.36;24.64;94863.69;5024469;28;20205;-73
2021/07/13 11:19:00;;;;;;;10.40;8.57;;;;;;;34.11;24.25;94900.69;5011245;28;20659;-72
2021/07/13 11:21:37;;;;;;;9.17;7.43;;;;;;;33.96;23.60;94902.00;5024662;28;20197;-73
2021/07/13 11:24:05;;;;;;;11.07;8.30;;;;;;;34.11;24.42;94891.75;5021106;28;20184;-72
2021/07/13 11:26:34;;;;;;;10.63;8.00;;;;;;;34.04;23.94;94897.25;5027476;28;20189;-73
2021/07/13 11:29:05;;;;;;;9.03;8.07;;;;;;;34.28;23.39;94891.56;5019970;28;20216;-73
2021/07/13 11:31:40;;;;;;;10.43;7.77;;;;;;;34.50;23.80;94882.00;5029747;28;20196;-72
2021/07/13 11:34:12;;;;;;;9.47;7.73;;;;;;;34.58;23.40;94879.97;5030583;28;20199;-71